createdAt,value
2022-12-31T00:01:27.233Z,3.33
2022-12-31T00:03:54.107Z,1.77
2022-12-31T00:06:24.861Z,2.85
2022-12-31T00:08:52.207Z,3.30
2022-12-31T00:11:19.129Z,2.72
2022-12-31T00:13:46.840Z,3.22
2022-12-31T00:16:18.441Z,1.10
2022-12-31T00:18:45.776Z,2.33
2022-12-31T00:21:12.361Z,4.10
2022-12-31T00:23:38.859Z,2.08
2022-12-31T00:26:09.688Z,3.20
2022-12-31T00:28:37.256Z,1.45
2022-12-31T00:31:04.827Z,2.25
2022-12-31T00:33:31.296Z,5.25
2022-12-31T00:36:04.200Z,2.90
2022-12-31T00:38:30.660Z,1.30
2022-12-31T00:40:57.104Z,1.98
2022-12-31T00:43:23.600Z,5.20
2022-12-31T00:45:50.109Z,1.50
2022-12-31T00:48:16.577Z,4.25
2022-12-31T00:50:43.053Z,2.70
2022-12-31T00:53:09.516Z,2.72
2022-12-31T00:55:35.992Z,4.03
2022-12-31T00:58:02.464Z,2.80
2022-12-31T01:00:28.999Z,3.20
2022-12-31T01:02:55.610Z,2.75
2022-12-31T01:05:22.128Z,3.45
2022-12-31T01:07:48.611Z,2.80
2022-12-31T01:10:35.213Z,4.72
2022-12-31T01:13:01.683Z,1.85
2022-12-31T01:15:28.195Z,3.67
2022-12-31T01:17:54.713Z,3.95
2022-12-31T01:20:23.941Z,4.55
2022-12-31T01:22:50.412Z,6.80
2022-12-31T01:25:17.000Z,2.20
2022-12-31T01:27:43.449Z,4.13
2022-12-31T01:30:10.192Z,3.25
2022-12-31T01:32:36.756Z,4.90
2022-12-31T01:35:03.428Z,6.88
2022-12-31T01:37:29.913Z,3.95
2022-12-31T01:39:56.390Z,4.03
2022-12-31T01:42:22.868Z,3.10
2022-12-31T01:44:51.164Z,1.88
2022-12-31T01:47:20.046Z,3.95
2022-12-31T01:49:51.536Z,2.88
2022-12-31T01:52:37.449Z,4.20
2022-12-31T01:55:10.029Z,3.88
2022-12-31T01:57:37.431Z,4.47
2022-12-31T02:00:05.165Z,2.70
2022-12-31T02:02:31.699Z,3.63
2022-12-31T02:05:00.255Z,4.13
2022-12-31T02:07:26.765Z,8.85
2022-12-31T02:09:53.755Z,3.83
2022-12-31T02:12:20.345Z,4.65
2022-12-31T02:14:48.257Z,4.25
2022-12-31T02:17:14.709Z,2.30
2022-12-31T02:19:47.324Z,3.70
2022-12-31T02:22:22.867Z,5.43
2022-12-31T02:25:25.172Z,1.83
2022-12-31T02:27:56.093Z,2.05
2022-12-31T02:30:24.065Z,1.48
2022-12-31T02:32:56.555Z,1.98
2022-12-31T02:35:29.073Z,5.13
2022-12-31T02:37:59.163Z,5.97
2022-12-31T02:40:25.903Z,4.45
2022-12-31T02:42:55.612Z,2.97
2022-12-31T02:45:27.385Z,1.38
2022-12-31T02:48:15.032Z,4.63
2022-12-31T02:51:00.159Z,5.75
2022-12-31T02:53:41.105Z,3.05
2022-12-31T02:56:13.416Z,1.20
2022-12-31T02:59:06.490Z,2.13
2022-12-31T03:01:53.987Z,2.83
2022-12-31T03:04:33.634Z,4.63
2022-12-31T03:07:05.143Z,1.70
2022-12-31T03:09:31.782Z,4.25
2022-12-31T03:12:17.268Z,1.73
2022-12-31T03:14:43.798Z,2.42
2022-12-31T03:17:10.455Z,3.55
2022-12-31T03:19:55.723Z,3.05
2022-12-31T03:22:28.226Z,3.03
2022-12-31T03:25:24.304Z,4.32
2022-12-31T03:27:51.747Z,3.03
2022-12-31T03:30:18.969Z,5.60
2022-12-31T03:32:46.113Z,1.23
2022-12-31T03:35:13.549Z,4.55
2022-12-31T03:37:40.311Z,4.65
2022-12-31T03:40:08.028Z,2.72
2022-12-31T03:42:34.796Z,3.53
2022-12-31T03:45:01.266Z,2.88
2022-12-31T03:47:27.891Z,3.17
2022-12-31T03:49:54.459Z,5.78
2022-12-31T03:52:20.924Z,4.07
2022-12-31T03:54:47.390Z,2.13
2022-12-31T03:57:13.904Z,6.47
2022-12-31T03:59:40.425Z,4.63
2022-12-31T04:02:07.084Z,3.45
2022-12-31T04:04:33.719Z,2.97
2022-12-31T04:07:00.430Z,3.42
2022-12-31T04:09:26.907Z,2.05
2022-12-31T04:11:53.428Z,3.85
2022-12-31T04:14:20.534Z,2.90
2022-12-31T04:16:47.061Z,3.40
2022-12-31T04:19:13.545Z,3.35
2022-12-31T04:21:40.027Z,2.38
2022-12-31T04:24:07.074Z,1.35
2022-12-31T04:26:33.883Z,4.05
2022-12-31T04:29:00.380Z,3.65
2022-12-31T04:31:27.256Z,1.65
2022-12-31T04:33:53.756Z,2.85
2022-12-31T04:36:20.259Z,1.67
2022-12-31T04:38:46.727Z,2.15
2022-12-31T04:41:19.755Z,3.05
2022-12-31T04:43:46.265Z,2.20
2022-12-31T04:46:13.167Z,5.03
2022-12-31T04:48:39.670Z,1.58
2022-12-31T04:51:06.248Z,3.83
2022-12-31T04:53:33.093Z,4.63
2022-12-31T04:55:59.594Z,4.50
2022-12-31T04:58:26.069Z,3.75
2022-12-31T05:00:54.697Z,2.53
2022-12-31T05:03:22.628Z,4.38
2022-12-31T05:05:50.101Z,3.28
2022-12-31T05:08:17.571Z,6.72
2022-12-31T05:10:48.972Z,6.15
2022-12-31T05:13:15.952Z,3.28
2022-12-31T05:15:42.889Z,6.88
2022-12-31T05:18:09.402Z,2.92
2022-12-31T05:20:35.872Z,4.55
2022-12-31T05:23:02.451Z,2.47
2022-12-31T05:25:29.089Z,2.63
2022-12-31T05:27:55.567Z,4.22
2022-12-31T05:30:22.098Z,2.10
2022-12-31T05:32:48.585Z,4.22
2022-12-31T05:35:15.125Z,3.63
2022-12-31T05:37:41.627Z,6.25
2022-12-31T05:40:08.434Z,1.63
2022-12-31T05:42:35.152Z,4.57
2022-12-31T05:45:01.636Z,4.28
2022-12-31T05:47:28.860Z,4.13
2022-12-31T05:49:55.461Z,5.80
2022-12-31T05:52:21.920Z,5.72
2022-12-31T05:54:48.445Z,2.55
2022-12-31T05:57:14.949Z,3.60
2022-12-31T05:59:41.476Z,3.38
2022-12-31T06:02:08.003Z,1.80
2022-12-31T06:04:34.485Z,3.15
2022-12-31T06:07:00.933Z,2.90
2022-12-31T06:09:27.402Z,3.45
2022-12-31T06:11:55.089Z,2.42
2022-12-31T06:14:21.589Z,3.55
2022-12-31T06:16:48.052Z,3.15
2022-12-31T06:19:14.572Z,5.18
2022-12-31T06:21:41.056Z,2.90
2022-12-31T06:24:07.668Z,3.25
2022-12-31T06:26:34.204Z,5.90
2022-12-31T06:29:00.669Z,2.80
2022-12-31T06:31:27.147Z,13.02
2022-12-31T06:33:53.647Z,3.70
2022-12-31T06:36:21.900Z,2.08
2022-12-31T06:38:48.758Z,4.18
2022-12-31T06:41:16.249Z,5.95
2022-12-31T06:43:42.901Z,4.13
2022-12-31T06:46:11.025Z,6.07
2022-12-31T06:48:38.045Z,3.10
2022-12-31T06:51:15.059Z,2.47
2022-12-31T06:53:43.845Z,3.08
2022-12-31T06:56:14.626Z,4.03
2022-12-31T06:58:41.269Z,7.15
2022-12-31T07:01:26.284Z,7.25
2022-12-31T07:04:00.589Z,3.08
2022-12-31T07:06:27.023Z,5.95
2022-12-31T07:09:01.465Z,5.00
2022-12-31T07:11:30.304Z,2.60
2022-12-31T07:14:15.587Z,3.47
2022-12-31T07:16:54.364Z,3.75
2022-12-31T07:19:26.867Z,1.95
2022-12-31T07:21:53.988Z,10.35
2022-12-31T07:24:20.604Z,2.13
2022-12-31T07:26:56.770Z,5.80
2022-12-31T07:29:29.588Z,3.75
2022-12-31T07:32:07.749Z,3.47
2022-12-31T07:34:46.538Z,4.68
2022-12-31T07:37:16.257Z,7.78
2022-12-31T07:40:03.182Z,2.75
2022-12-31T07:42:32.775Z,4.70
2022-12-31T07:44:59.234Z,3.35
2022-12-31T07:47:26.954Z,4.97
2022-12-31T07:49:53.987Z,7.30
2022-12-31T07:52:21.090Z,2.28
2022-12-31T07:54:47.655Z,1.45
2022-12-31T07:57:15.341Z,3.25
2022-12-31T07:59:48.295Z,4.50
2022-12-31T08:02:33.448Z,2.58
2022-12-31T08:05:05.451Z,6.18
2022-12-31T08:07:50.031Z,2.40
2022-12-31T08:10:52.103Z,4.00
2022-12-31T08:13:18.599Z,3.45
2022-12-31T08:15:45.191Z,2.90
2022-12-31T08:18:11.817Z,4.57
2022-12-31T08:20:49.775Z,3.28
2022-12-31T08:23:16.326Z,4.93
2022-12-31T08:25:42.755Z,4.78
2022-12-31T08:28:17.522Z,3.35
2022-12-31T08:31:05.109Z,6.28
2022-12-31T08:34:10.107Z,5.43
2022-12-31T08:36:51.323Z,2.13
2022-12-31T08:39:17.783Z,7.20
2022-12-31T08:41:45.448Z,4.50
2022-12-31T08:44:21.016Z,2.13
2022-12-31T08:46:57.309Z,5.93
2022-12-31T08:49:26.524Z,3.40
2022-12-31T08:51:53.163Z,4.78
2022-12-31T08:54:19.777Z,9.18
2022-12-31T08:56:55.582Z,4.65
2022-12-31T08:59:42.089Z,2.70
2022-12-31T09:02:14.490Z,10.05
2022-12-31T09:04:55.162Z,5.35
2022-12-31T09:07:23.817Z,2.28
2022-12-31T09:10:16.312Z,2.78
2022-12-31T09:13:01.294Z,3.40
2022-12-31T09:15:37.497Z,2.38
2022-12-31T09:18:04.136Z,2.08
2022-12-31T09:20:42.973Z,6.63
2022-12-31T09:23:11.491Z,4.68
2022-12-31T09:25:42.363Z,3.47
2022-12-31T09:28:08.811Z,3.47
2022-12-31T09:30:53.660Z,5.22
2022-12-31T09:33:23.115Z,3.08
2022-12-31T09:35:54.199Z,4.38
2022-12-31T09:38:30.016Z,5.85
2022-12-31T09:41:12.924Z,6.47
2022-12-31T09:43:39.364Z,6.13
2022-12-31T09:46:08.653Z,8.98
2022-12-31T09:48:48.184Z,2.65
2022-12-31T09:51:23.384Z,6.72
2022-12-31T09:54:09.905Z,5.47
2022-12-31T09:56:37.252Z,4.45
2022-12-31T09:59:27.085Z,5.78
2022-12-31T10:02:11.989Z,3.55
2022-12-31T10:04:58.813Z,2.83
2022-12-31T10:07:34.458Z,4.82
2022-12-31T10:10:05.304Z,9.82
2022-12-31T10:12:52.083Z,5.95
2022-12-31T10:15:18.522Z,9.50
2022-12-31T10:18:03.903Z,15.60
2022-12-31T10:21:05.641Z,17.15
2022-12-31T10:23:47.238Z,28.42
2022-12-31T10:26:16.415Z,17.60
2022-12-31T10:28:48.980Z,17.30
2022-12-31T10:31:34.418Z,19.00
2022-12-31T10:34:19.220Z,19.05
2022-12-31T10:36:55.045Z,17.92
2022-12-31T10:39:24.513Z,12.07
2022-12-31T10:41:51.190Z,11.05
2022-12-31T10:44:36.501Z,13.80
2022-12-31T10:47:18.344Z,19.23
2022-12-31T10:49:44.779Z,48.03
2022-12-31T10:52:29.992Z,48.75
2022-12-31T10:55:05.550Z,43.13
2022-12-31T10:57:44.449Z,46.83
2022-12-31T11:00:12.353Z,42.70
2022-12-31T11:02:57.621Z,32.65
2022-12-31T11:05:42.623Z,29.77
2022-12-31T11:08:18.298Z,26.02
2022-12-31T11:10:47.484Z,29.58
2022-12-31T11:13:22.789Z,29.67
2022-12-31T11:16:12.668Z,26.55
2022-12-31T11:18:39.120Z,17.80
2022-12-31T11:21:28.320Z,14.77
2022-12-31T11:23:58.260Z,12.43
2022-12-31T11:26:33.937Z,9.48
2022-12-31T11:29:18.483Z,8.50
2022-12-31T11:31:59.574Z,5.68
2022-12-31T11:34:26.040Z,6.40
2022-12-31T11:37:04.775Z,7.20
2022-12-31T11:39:49.079Z,10.98
2022-12-31T11:42:24.831Z,10.98
2022-12-31T11:45:04.204Z,8.40
2022-12-31T11:48:20.218Z,7.05
2022-12-31T11:50:35.172Z,5.57
2022-12-31T11:53:01.617Z,12.15
2022-12-31T11:55:33.962Z,6.78
2022-12-31T11:58:10.115Z,4.97
2022-12-31T12:00:37.793Z,7.25
2022-12-31T12:03:05.575Z,5.90
2022-12-31T12:05:33.785Z,10.35
2022-12-31T12:08:01.213Z,8.70
2022-12-31T12:10:38.376Z,8.73
2022-12-31T12:13:20.045Z,8.07
2022-12-31T12:15:51.308Z,5.05
2022-12-31T12:18:29.076Z,3.75
2022-12-31T12:21:03.828Z,3.33
2022-12-31T12:23:30.329Z,2.42
2022-12-31T12:25:56.833Z,4.63
2022-12-31T12:28:27.535Z,2.42
2022-12-31T12:30:55.427Z,6.95
2022-12-31T12:33:21.897Z,3.92
2022-12-31T12:35:48.483Z,10.93
2022-12-31T12:38:14.917Z,3.20
2022-12-31T12:40:41.385Z,4.05
2022-12-31T12:43:20.891Z,7.28
2022-12-31T12:45:51.686Z,4.28
2022-12-31T12:48:37.038Z,4.53
2022-12-31T12:51:10.356Z,5.50
2022-12-31T12:53:51.445Z,8.23
2022-12-31T12:56:18.838Z,3.63
2022-12-31T12:58:51.357Z,2.92
2022-12-31T13:01:23.832Z,3.33
2022-12-31T13:07:03.490Z,5.45
2022-12-31T13:09:50.817Z,7.15
2022-12-31T13:12:17.253Z,5.20
2022-12-31T13:15:00.922Z,10.88
2022-12-31T13:17:39.645Z,4.40
2022-12-31T13:20:13.290Z,3.63
2022-12-31T13:25:26.406Z,7.10
2022-12-31T13:27:54.029Z,9.95
2022-12-31T13:30:21.795Z,7.50
2022-12-31T13:33:00.434Z,11.00
2022-12-31T13:35:43.518Z,12.85
2022-12-31T13:38:17.540Z,11.48
2022-12-31T13:40:44.063Z,10.63
2022-12-31T13:43:19.880Z,7.68
2022-12-31T13:45:59.352Z,7.88
2022-12-31T13:48:30.380Z,4.00
2022-12-31T13:51:11.374Z,5.30
2022-12-31T13:53:49.021Z,10.27
2022-12-31T13:56:19.968Z,5.82
2022-12-31T13:58:49.721Z,4.45
2022-12-31T14:01:22.436Z,5.53
2022-12-31T14:03:54.977Z,4.63
2022-12-31T14:06:31.719Z,5.57
2022-12-31T14:08:59.063Z,8.90
2022-12-31T14:11:25.547Z,7.60
2022-12-31T14:14:04.060Z,6.28
2022-12-31T14:16:39.744Z,4.75
2022-12-31T14:19:12.155Z,6.22
2022-12-31T14:21:50.799Z,6.35
2022-12-31T14:24:23.253Z,7.05
2022-12-31T14:26:52.842Z,7.28
2022-12-31T14:29:28.463Z,6.90
2022-12-31T14:32:15.217Z,3.72
2022-12-31T14:34:41.643Z,2.63
2022-12-31T14:37:23.569Z,4.35
2022-12-31T14:40:08.461Z,4.93
2022-12-31T14:42:44.755Z,8.93
2022-12-31T14:45:27.705Z,5.10
2022-12-31T14:48:03.441Z,8.00
2022-12-31T14:50:30.772Z,8.70
2022-12-31T14:53:00.213Z,4.65
2022-12-31T14:55:26.723Z,3.88
2022-12-31T15:00:40.103Z,5.18
2022-12-31T15:03:06.611Z,5.50
2022-12-31T15:05:34.243Z,4.60
2022-12-31T15:08:12.363Z,3.22
2022-12-31T15:10:38.826Z,6.80
2022-12-31T15:13:06.780Z,7.22
2022-12-31T15:15:43.349Z,12.73
2022-12-31T15:18:18.761Z,7.70
2022-12-31T15:20:49.604Z,10.52
2022-12-31T15:23:51.433Z,3.88
2022-12-31T15:26:22.913Z,7.38
2022-12-31T15:28:57.428Z,9.82
2022-12-31T15:31:24.277Z,5.47
2022-12-31T15:33:58.136Z,6.32
2022-12-31T15:36:26.357Z,4.47
2022-12-31T15:39:03.630Z,6.90
2022-12-31T15:41:37.032Z,8.45
2022-12-31T15:44:12.324Z,3.92
2022-12-31T15:46:40.561Z,3.55
2022-12-31T15:49:18.241Z,3.88
2022-12-31T15:51:47.044Z,5.72
2022-12-31T15:54:22.148Z,2.60
2022-12-31T15:56:49.505Z,3.58
2022-12-31T15:59:17.074Z,7.05
2022-12-31T16:01:44.612Z,6.53
2022-12-31T16:04:21.331Z,11.90
2022-12-31T16:06:50.966Z,7.32
2022-12-31T16:09:20.685Z,17.02
2022-12-31T16:11:47.205Z,14.85
2022-12-31T16:14:16.427Z,14.80
2022-12-31T16:16:51.453Z,11.20
2022-12-31T16:19:31.554Z,10.25
2022-12-31T16:22:00.737Z,8.30
2022-12-31T16:24:29.360Z,5.55
2022-12-31T16:26:57.311Z,6.70
2022-12-31T16:29:24.178Z,8.98
2022-12-31T16:31:53.192Z,12.70
2022-12-31T16:34:24.866Z,6.68
2022-12-31T16:36:55.242Z,8.90
2022-12-31T16:39:26.312Z,7.53
2022-12-31T16:41:53.697Z,5.35
2022-12-31T16:44:26.907Z,4.95
2022-12-31T16:46:56.005Z,6.45
2022-12-31T16:49:22.779Z,14.35
2022-12-31T16:51:52.365Z,23.75
2022-12-31T16:54:20.547Z,36.47
2022-12-31T16:56:47.367Z,19.48
2022-12-31T16:59:23.908Z,23.15
2022-12-31T17:01:50.989Z,18.38
2022-12-31T17:04:19.412Z,23.77
2022-12-31T17:06:45.868Z,9.73
2022-12-31T17:09:21.048Z,10.38
2022-12-31T17:11:54.487Z,8.00
2022-12-31T17:14:23.475Z,12.52
2022-12-31T17:17:02.676Z,9.00
2022-12-31T17:19:36.483Z,11.13
2022-12-31T17:22:04.200Z,14.38
2022-12-31T17:24:30.763Z,9.52
2022-12-31T17:27:03.393Z,12.32
2022-12-31T17:29:29.851Z,7.90
2022-12-31T17:31:59.112Z,8.75
2022-12-31T17:34:57.834Z,8.57
2022-12-31T17:37:28.252Z,6.90
2022-12-31T17:40:24.663Z,14.98
2022-12-31T17:42:47.793Z,11.93
2022-12-31T17:45:21.510Z,11.05
2022-12-31T17:47:51.152Z,8.07
2022-12-31T17:50:22.100Z,11.25
2022-12-31T17:52:48.752Z,4.80
2022-12-31T17:55:15.450Z,9.05
2022-12-31T17:57:49.352Z,9.73
2022-12-31T18:00:20.398Z,7.80
2022-12-31T18:02:46.955Z,7.55
2022-12-31T18:05:17.362Z,7.15
2022-12-31T18:07:43.821Z,6.50
2022-12-31T18:10:11.722Z,8.18
2022-12-31T18:12:38.240Z,7.38
2022-12-31T18:15:05.049Z,9.00
2022-12-31T18:17:33.348Z,10.65
2022-12-31T18:20:07.090Z,9.10
2022-12-31T18:22:33.886Z,9.57
2022-12-31T18:25:00.604Z,9.45
2022-12-31T18:27:27.397Z,5.90
2022-12-31T18:29:55.757Z,11.77
2022-12-31T18:32:28.528Z,11.30
2022-12-31T18:34:55.029Z,17.55
2022-12-31T18:37:22.460Z,10.43
2022-12-31T18:39:49.038Z,21.00
2022-12-31T18:42:17.218Z,14.15
2022-12-31T18:44:44.124Z,9.02
2022-12-31T18:47:14.765Z,12.98
2022-12-31T18:49:41.803Z,12.63
2022-12-31T18:52:15.186Z,7.97
2022-12-31T18:54:41.938Z,7.25
2022-12-31T18:57:09.554Z,17.23
2022-12-31T18:59:36.003Z,12.05
2022-12-31T19:02:02.686Z,8.55
2022-12-31T19:04:29.299Z,8.45
2022-12-31T19:06:56.517Z,7.13
2022-12-31T19:09:44.809Z,11.32
2022-12-31T19:12:13.334Z,14.60
2022-12-31T19:14:39.842Z,7.22
2022-12-31T19:19:31.716Z,11.30
2022-12-31T19:21:58.296Z,10.35
2022-12-31T19:24:26.734Z,5.53
2022-12-31T19:26:54.058Z,8.68
2022-12-31T19:29:22.180Z,9.73
2022-12-31T19:31:48.772Z,9.10
2022-12-31T19:34:15.396Z,12.85
2022-12-31T19:36:44.269Z,9.73
2022-12-31T19:39:14.521Z,11.00
2022-12-31T19:41:44.302Z,11.18
2022-12-31T19:44:15.535Z,8.27
2022-12-31T19:46:42.103Z,6.90
2022-12-31T19:49:10.737Z,8.02
2022-12-31T19:51:37.229Z,8.35
2022-12-31T19:54:03.727Z,7.57
2022-12-31T19:56:30.367Z,8.07
2022-12-31T19:58:56.816Z,5.97
2022-12-31T20:01:24.644Z,7.47
2022-12-31T20:03:51.667Z,8.02
2022-12-31T20:06:18.558Z,7.05
2022-12-31T20:08:46.553Z,6.82
2022-12-31T20:11:15.372Z,5.82
2022-12-31T20:13:42.162Z,9.00
2022-12-31T20:16:09.747Z,11.73
2022-12-31T20:18:36.981Z,6.47
2022-12-31T20:21:03.520Z,9.25
2022-12-31T20:23:32.655Z,6.38
2022-12-31T20:25:59.641Z,8.43
2022-12-31T20:28:26.256Z,6.32
2022-12-31T20:30:52.927Z,7.53
2022-12-31T20:33:19.554Z,10.70
2022-12-31T20:35:46.289Z,8.43
2022-12-31T20:38:12.785Z,5.78
2022-12-31T20:40:46.130Z,6.72
2022-12-31T20:43:13.274Z,9.00
2022-12-31T20:45:40.636Z,7.70
2022-12-31T20:48:07.133Z,9.32
2022-12-31T20:50:33.621Z,5.90
2022-12-31T20:53:00.076Z,8.40
2022-12-31T20:55:27.425Z,8.23
2022-12-31T20:57:53.901Z,9.57
2022-12-31T21:00:20.404Z,5.78
2022-12-31T21:02:56.338Z,7.30
2022-12-31T21:05:27.224Z,8.18
2022-12-31T21:07:53.939Z,14.52
2022-12-31T21:10:20.435Z,9.00
2022-12-31T21:12:53.237Z,7.10
2022-12-31T21:15:20.423Z,6.00
2022-12-31T21:17:46.899Z,6.68
2022-12-31T21:20:13.376Z,8.00
2022-12-31T21:22:39.869Z,7.68
2022-12-31T21:25:06.573Z,5.80
2022-12-31T21:27:33.048Z,6.72
2022-12-31T21:30:18.249Z,5.10
2022-12-31T21:32:45.228Z,13.75
2022-12-31T21:35:42.230Z,30.60
2022-12-31T21:38:01.883Z,33.38
2022-12-31T21:40:29.000Z,41.67
2022-12-31T21:42:55.533Z,47.42
2022-12-31T21:45:22.009Z,19.63
2022-12-31T21:48:06.918Z,32.17
2022-12-31T21:50:33.666Z,41.55
2022-12-31T21:53:00.128Z,51.58
2022-12-31T21:55:45.554Z,6.30
2022-12-31T21:58:28.329Z,9.70
2022-12-31T22:01:14.442Z,63.57
2022-12-31T22:03:41.337Z,13.38
2022-12-31T22:06:12.560Z,7.97
2022-12-31T22:08:39.909Z,9.40
2022-12-31T22:11:06.996Z,6.63
2022-12-31T22:13:33.951Z,8.57
2022-12-31T22:16:05.246Z,13.02
2022-12-31T22:18:34.538Z,10.98
2022-12-31T22:21:05.545Z,10.73
2022-12-31T22:23:32.788Z,9.02
2022-12-31T22:25:59.632Z,9.80
2022-12-31T22:28:41.627Z,7.53
2022-12-31T22:31:09.421Z,6.15
2022-12-31T22:33:36.023Z,9.02
2022-12-31T22:36:07.208Z,5.40
2022-12-31T22:38:34.171Z,7.07
2022-12-31T22:41:14.093Z,6.40
2022-12-31T22:43:42.146Z,10.98
2022-12-31T22:46:15.771Z,6.75
2022-12-31T22:51:09.823Z,6.28
2022-12-31T22:53:36.627Z,9.50
2022-12-31T22:56:03.122Z,6.60
2022-12-31T22:58:29.661Z,7.05
2022-12-31T23:00:56.157Z,4.53
2022-12-31T23:03:22.781Z,8.13
2022-12-31T23:05:51.255Z,10.07
2022-12-31T23:08:23.285Z,6.60
2022-12-31T23:11:00.364Z,5.87
2022-12-31T23:13:50.474Z,5.13
2022-12-31T23:16:36.266Z,5.10
2022-12-31T23:19:21.337Z,5.78
2022-12-31T23:22:06.477Z,9.90
2022-12-31T23:24:32.957Z,8.20
2022-12-31T23:26:59.428Z,31.38
2022-12-31T23:29:26.282Z,13.13
2022-12-31T23:31:52.997Z,8.52
2022-12-31T23:34:19.724Z,4.20
2022-12-31T23:36:46.214Z,6.03
2022-12-31T23:39:13.566Z,5.60
2022-12-31T23:41:40.467Z,5.10
2022-12-31T23:44:07.004Z,7.78
2022-12-31T23:46:33.639Z,8.70
2022-12-31T23:49:00.159Z,7.95
2022-12-31T23:51:26.724Z,9.80
2022-12-31T23:53:53.300Z,7.22
2022-12-31T23:56:23.729Z,7.45
2022-12-31T23:58:53.856Z,8.23
